VLG3CA EDDL-EDDS
Flight info
| Callsign | VLG3CA |
|---|---|
| Flight time | N/A |
| Altitude | 23000 |
| Route | KUMIK5Z/05R KUMIK L603 BOMBI N850 KRH T128 BADSO BADSO2A |
| Aircraft | A320/M-SDE3FGHIRWY/LB1 |
Departure
| Time | 2026-05-06 18:35 |
|---|---|
| Airport | Düsseldorf Airport (EDDL) |
Arrival
| Time | N/A |
|---|---|
| Airport | Stuttgart Airport (EDDS) |
| Time | Latitude | Longitude | Altitude | Speed | Heading |
|---|---|---|---|---|---|
| 2026-05-06 18:01 | 51.27912 | 6.76246 | 128 ft | 0 kts | 58° |
| 2026-05-06 18:27 | 51.27904 | 6.76224 | 124 ft | 4 kts | 59° |
| 2026-05-06 18:27 | 51.27890 | 6.76188 | 123 ft | 4 kts | 57° |
| 2026-05-06 18:28 | 51.27874 | 6.76153 | 122 ft | 4 kts | 47° |
| 2026-05-06 18:28 | 51.27854 | 6.76128 | 124 ft | 4 kts | 12° |
| 2026-05-06 18:28 | 51.27838 | 6.76130 | 123 ft | 3 kts | 287° |
| 2026-05-06 18:28 | 51.27836 | 6.76141 | 122 ft | 0 kts | 285° |
| 2026-05-06 18:32 | 51.27837 | 6.76140 | 122 ft | 0 kts | 285° |
| 2026-05-06 18:32 | 51.27841 | 6.76087 | 125 ft | 12 kts | 272° |
| 2026-05-06 18:33 | 51.27844 | 6.75917 | 128 ft | 16 kts | 271° |
| 2026-05-06 18:33 | 51.27859 | 6.75759 | 124 ft | 11 kts | 278° |
| 2026-05-06 18:33 | 51.27866 | 6.75662 | 123 ft | 0 kts | 285° |
| 2026-05-06 18:33 | 51.27867 | 6.75659 | 123 ft | 1 kts | 285° |
| 2026-05-06 18:34 | 51.27904 | 6.75595 | 122 ft | 17 kts | 334° |
| 2026-05-06 18:34 | 51.28001 | 6.75522 | 116 ft | 13 kts | 334° |
| 2026-05-06 18:34 | 51.28089 | 6.75470 | 120 ft | 7 kts | 11° |
| 2026-05-06 18:34 | 51.28105 | 6.75498 | 116 ft | 0 kts | 53° |
| 2026-05-06 18:35 | 51.28127 | 6.75545 | 118 ft | 26 kts | 53° |
| 2026-05-06 18:35 | 51.28402 | 6.76119 | 120 ft | 98 kts | 53° |
| 2026-05-06 18:35 | 51.28930 | 6.77219 | 165 ft | 147 kts | 49° |
| 2026-05-06 18:35 | 51.29565 | 6.78538 | 751 ft | 153 kts | 50° |
| 2026-05-06 18:36 | 51.30209 | 6.79930 | 1431 ft | 162 kts | 51° |
| 2026-05-06 18:36 | 51.30961 | 6.81531 | 1678 ft | 193 kts | 50° |
| 2026-05-06 18:36 | 51.31852 | 6.83343 | 2059 ft | 222 kts | 50° |
| 2026-05-06 18:36 | 51.32862 | 6.85388 | 2630 ft | 245 kts | 51° |
| 2026-05-06 18:37 | 51.33915 | 6.87597 | 3544 ft | 254 kts | 51° |
| 2026-05-06 18:37 | 51.34826 | 6.89979 | 4560 ft | 259 kts | 67° |
| 2026-05-06 18:37 | 51.35200 | 6.92849 | 4909 ft | 267 kts | 85° |
| 2026-05-06 18:37 | 51.35019 | 6.95807 | 4996 ft | 269 kts | 98° |
| 2026-05-06 18:38 | 51.34685 | 6.98746 | 5003 ft | 268 kts | 97° |
| 2026-05-06 18:38 | 51.34377 | 7.01690 | 5010 ft | 268 kts | 97° |
| 2026-05-06 18:38 | 51.34080 | 7.04629 | 5007 ft | 268 kts | 96° |
| 2026-05-06 18:38 | 51.33782 | 7.07614 | 5414 ft | 275 kts | 96° |
| 2026-05-06 18:39 | 51.33483 | 7.10616 | 6484 ft | 274 kts | 96° |
| 2026-05-06 18:39 | 51.33181 | 7.13647 | 7413 ft | 278 kts | 96° |
| 2026-05-06 18:39 | 51.32874 | 7.16716 | 8336 ft | 281 kts | 95° |
| 2026-05-06 18:40 | 51.32332 | 7.22993 | 10115 ft | 290 kts | 94° |
| 2026-05-06 18:40 | 51.32093 | 7.26330 | 10464 ft | 314 kts | 94° |
| 2026-05-06 18:40 | 51.31843 | 7.29921 | 10814 ft | 334 kts | 94° |
| 2026-05-06 18:40 | 51.31579 | 7.33655 | 11485 ft | 342 kts | 95° |
| 2026-05-06 18:41 | 51.31036 | 7.37400 | 12225 ft | 350 kts | 108° |
| 2026-05-06 18:41 | 51.29974 | 7.40978 | 12987 ft | 357 kts | 121° |
| 2026-05-06 18:41 | 51.28484 | 7.44146 | 13716 ft | 363 kts | 128° |
| 2026-05-06 18:41 | 51.26866 | 7.47267 | 14377 ft | 367 kts | 129° |
| 2026-05-06 18:42 | 51.25196 | 7.50486 | 15074 ft | 370 kts | 129° |
| 2026-05-06 18:42 | 51.23582 | 7.53600 | 15737 ft | 374 kts | 129° |
| 2026-05-06 18:42 | 51.21915 | 7.56808 | 16417 ft | 377 kts | 130° |
| 2026-05-06 18:42 | 51.20232 | 7.60042 | 17080 ft | 381 kts | 130° |
| 2026-05-06 18:43 | 51.18529 | 7.63315 | 17739 ft | 385 kts | 130° |
| 2026-05-06 18:43 | 51.16783 | 7.66583 | 18337 ft | 389 kts | 135° |
| 2026-05-06 18:43 | 51.14753 | 7.69444 | 18883 ft | 391 kts | 144° |
| 2026-05-06 18:43 | 51.12591 | 7.72086 | 19474 ft | 393 kts | 144° |
| 2026-05-06 18:44 | 51.10447 | 7.74713 | 20056 ft | 395 kts | 143° |
| 2026-05-06 18:44 | 51.08265 | 7.77386 | 20640 ft | 397 kts | 144° |
| 2026-05-06 18:44 | 51.06069 | 7.80073 | 21197 ft | 399 kts | 144° |
| 2026-05-06 18:44 | 51.03860 | 7.82771 | 21752 ft | 402 kts | 144° |
| 2026-05-06 18:45 | 51.01638 | 7.85485 | 22296 ft | 404 kts | 144° |
| 2026-05-06 18:45 | 50.99369 | 7.88253 | 22745 ft | 407 kts | 144° |
| 2026-05-06 18:45 | 50.97153 | 7.90956 | 22841 ft | 407 kts | 144° |
| 2026-05-06 18:45 | 50.94914 | 7.93685 | 22845 ft | 406 kts | 144° |
| 2026-05-06 18:46 | 50.92664 | 7.96419 | 22846 ft | 406 kts | 144° |
| 2026-05-06 18:46 | 50.90421 | 7.99139 | 22844 ft | 406 kts | 144° |
| 2026-05-06 18:46 | 50.88172 | 8.01860 | 22835 ft | 406 kts | 144° |
| 2026-05-06 18:46 | 50.85930 | 8.04574 | 22842 ft | 406 kts | 144° |
| 2026-05-06 18:47 | 50.83824 | 8.07560 | 22839 ft | 408 kts | 135° |